sensor_id;sensor_type;location;lat;lon;timestamp;pressure;altitude;pressure_sealevel;temperature;humidity
22031;BME280;11179;52.106;21.024;2022-09-30T00:01:42;99894.13;;;4.14;69.61
22031;BME280;11179;52.106;21.024;2022-09-30T00:04:18;99895.56;;;4.17;69.67
22031;BME280;11179;52.106;21.024;2022-09-30T00:06:45;99897.09;;;4.13;69.88
22031;BME280;11179;52.106;21.024;2022-09-30T00:09:10;99893.31;;;4.14;70.06
22031;BME280;11179;52.106;21.024;2022-09-30T00:11:37;99899.00;;;4.12;70.12
22031;BME280;11179;52.106;21.024;2022-09-30T00:14:06;99902.16;;;4.09;69.66
22031;BME280;11179;52.106;21.024;2022-09-30T00:16:34;99905.53;;;4.04;69.75
22031;BME280;11179;52.106;21.024;2022-09-30T00:19:00;99896.78;;;4.02;69.81
22031;BME280;11179;52.106;21.024;2022-09-30T00:21:27;99892.41;;;4.01;69.95
22031;BME280;11179;52.106;21.024;2022-09-30T00:23:53;99891.81;;;3.99;69.99
22031;BME280;11179;52.106;21.024;2022-09-30T00:26:21;99898.91;;;4.00;69.95
22031;BME280;11179;52.106;21.024;2022-09-30T00:28:51;99889.69;;;4.01;70.25
22031;BME280;11179;52.106;21.024;2022-09-30T00:31:18;99888.03;;;4.00;70.07
22031;BME280;11179;52.106;21.024;2022-09-30T00:33:45;99902.22;;;4.02;70.19
22031;BME280;11179;52.106;21.024;2022-09-30T00:36:31;99896.66;;;3.97;70.25
22031;BME280;11179;52.106;21.024;2022-09-30T00:38:56;99899.50;;;4.02;70.30
22031;BME280;11179;52.106;21.024;2022-09-30T00:41:21;99907.03;;;4.00;70.58
22031;BME280;11179;52.106;21.024;2022-09-30T00:43:48;99894.41;;;3.94;70.47
22031;BME280;11179;52.106;21.024;2022-09-30T00:48:48;99897.13;;;3.88;70.72
22031;BME280;11179;52.106;21.024;2022-09-30T00:51:21;99894.41;;;3.88;70.97
22031;BME280;11179;52.106;21.024;2022-09-30T00:53:56;99891.94;;;3.86;71.10
22031;BME280;11179;52.106;21.024;2022-09-30T00:56:25;99884.88;;;3.85;71.22
22031;BME280;11179;52.106;21.024;2022-09-30T00:58:55;99900.44;;;3.96;71.10
22031;BME280;11179;52.106;21.024;2022-09-30T01:01:24;99901.88;;;3.99;71.32
22031;BME280;11179;52.106;21.024;2022-09-30T01:03:56;99906.00;;;4.01;71.08
22031;BME280;11179;52.106;21.024;2022-09-30T01:06:23;99902.22;;;4.02;71.53
22031;BME280;11179;52.106;21.024;2022-09-30T01:08:49;99904.72;;;4.04;71.43
22031;BME280;11179;52.106;21.024;2022-09-30T01:11:15;99908.88;;;4.06;71.59
22031;BME280;11179;52.106;21.024;2022-09-30T01:13:41;99899.66;;;4.07;71.65
22031;BME280;11179;52.106;21.024;2022-09-30T01:35:08;99906.53;;;4.10;71.80
22031;BME280;11179;52.106;21.024;2022-09-30T01:40:23;99919.28;;;4.10;72.33
22031;BME280;11179;52.106;21.024;2022-09-30T01:43:18;99920.56;;;4.07;72.04
22031;BME280;11179;52.106;21.024;2022-09-30T01:45:55;99920.19;;;4.03;72.08
22031;BME280;11179;52.106;21.024;2022-09-30T01:51:07;99915.69;;;3.97;72.29
22031;BME280;11179;52.106;21.024;2022-09-30T01:53:48;99908.41;;;3.91;72.41
22031;BME280;11179;52.106;21.024;2022-09-30T01:56:27;99914.28;;;3.88;72.44
22031;BME280;11179;52.106;21.024;2022-09-30T01:59:01;99914.91;;;3.90;72.26
22031;BME280;11179;52.106;21.024;2022-09-30T02:01:34;99916.78;;;3.90;72.47
22031;BME280;11179;52.106;21.024;2022-09-30T02:04:08;99923.28;;;3.89;72.27
22031;BME280;11179;52.106;21.024;2022-09-30T02:06:40;99921.81;;;3.86;72.41
22031;BME280;11179;52.106;21.024;2022-09-30T02:09:14;99925.34;;;3.87;72.48
22031;BME280;11179;52.106;21.024;2022-09-30T02:11:41;99930.59;;;3.88;72.26
22031;BME280;11179;52.106;21.024;2022-09-30T02:16:53;99936.41;;;3.92;72.39
22031;BME280;11179;52.106;21.024;2022-09-30T02:19:23;99943.28;;;3.94;72.52
22031;BME280;11179;52.106;21.024;2022-09-30T02:22:03;99936.63;;;3.90;72.37
22031;BME280;11179;52.106;21.024;2022-09-30T02:24:33;99962.91;;;3.96;72.25
22031;BME280;11179;52.106;21.024;2022-09-30T02:27:03;99947.28;;;3.92;72.32
22031;BME280;11179;52.106;21.024;2022-09-30T02:29:34;99950.38;;;3.95;72.33
22031;BME280;11179;52.106;21.024;2022-09-30T02:32:06;99958.44;;;4.02;72.41
22031;BME280;11179;52.106;21.024;2022-09-30T02:34:37;99956.56;;;4.02;72.44
22031;BME280;11179;52.106;21.024;2022-09-30T02:37:16;99964.72;;;4.02;72.29
22031;BME280;11179;52.106;21.024;2022-09-30T02:39:52;99956.66;;;3.96;72.11
22031;BME280;11179;52.106;21.024;2022-09-30T02:42:26;99962.44;;;3.99;71.97
22031;BME280;11179;52.106;21.024;2022-09-30T02:44:57;99972.09;;;3.95;72.16
22031;BME280;11179;52.106;21.024;2022-09-30T02:50:29;99980.91;;;3.91;71.98
22031;BME280;11179;52.106;21.024;2022-09-30T02:55:31;99957.94;;;3.87;72.05
22031;BME280;11179;52.106;21.024;2022-09-30T02:58:09;99960.91;;;3.85;71.95
22031;BME280;11179;52.106;21.024;2022-09-30T03:00:37;99941.13;;;3.78;72.06
22031;BME280;11179;52.106;21.024;2022-09-30T03:03:17;99969.88;;;3.86;71.73
22031;BME280;11179;52.106;21.024;2022-09-30T03:05:44;99978.84;;;3.86;71.86
22031;BME280;11179;52.106;21.024;2022-09-30T03:08:10;99978.84;;;3.86;72.11
22031;BME280;11179;52.106;21.024;2022-09-30T03:10:37;99961.97;;;3.84;71.83
22031;BME280;11179;52.106;21.024;2022-09-30T03:29:42;99995.25;;;3.73;71.61
22031;BME280;11179;52.106;21.024;2022-09-30T03:37:44;99989.06;;;3.66;71.65
22031;BME280;11179;52.106;21.024;2022-09-30T03:40:36;99981.53;;;3.68;71.45
22031;BME280;11179;52.106;21.024;2022-09-30T03:43:09;99971.53;;;3.62;71.59
22031;BME280;11179;52.106;21.024;2022-09-30T03:45:40;99983.03;;;3.64;71.38
22031;BME280;11179;52.106;21.024;2022-09-30T03:48:12;99979.06;;;3.60;71.47
22031;BME280;11179;52.106;21.024;2022-09-30T03:50:40;99987.84;;;3.62;71.29
22031;BME280;11179;52.106;21.024;2022-09-30T03:53:10;99991.16;;;3.64;71.34
22031;BME280;11179;52.106;21.024;2022-09-30T03:55:48;99989.50;;;3.63;71.46
22031;BME280;11179;52.106;21.024;2022-09-30T03:58:15;99986.78;;;3.63;71.25
22031;BME280;11179;52.106;21.024;2022-09-30T04:00:48;99983.94;;;3.58;71.41
22031;BME280;11179;52.106;21.024;2022-09-30T04:03:15;99993.25;;;3.62;71.38
22031;BME280;11179;52.106;21.024;2022-09-30T04:05:41;99998.69;;;3.62;71.40
22031;BME280;11179;52.106;21.024;2022-09-30T04:08:06;99992.06;;;3.58;71.36
22031;BME280;11179;52.106;21.024;2022-09-30T04:10:32;99994.16;;;3.56;71.37
22031;BME280;11179;52.106;21.024;2022-09-30T04:12:57;100014.22;;;3.55;71.08
22031;BME280;11179;52.106;21.024;2022-09-30T04:15:23;100025.28;;;3.53;71.36
22031;BME280;11179;52.106;21.024;2022-09-30T04:17:48;100012.44;;;3.42;71.30
22031;BME280;11179;52.106;21.024;2022-09-30T04:20:14;100023.44;;;3.47;71.50
22031;BME280;11179;52.106;21.024;2022-09-30T04:22:39;100030.94;;;3.52;71.65
22031;BME280;11179;52.106;21.024;2022-09-30T04:25:05;100024.88;;;3.56;71.59
22031;BME280;11179;52.106;21.024;2022-09-30T04:27:31;100020.25;;;3.57;71.69
22031;BME280;11179;52.106;21.024;2022-09-30T04:29:56;100026.03;;;3.67;71.78
22031;BME280;11179;52.106;21.024;2022-09-30T04:32:22;100042.72;;;3.70;71.79
22031;BME280;11179;52.106;21.024;2022-09-30T04:34:47;100031.06;;;3.63;71.78
22031;BME280;11179;52.106;21.024;2022-09-30T04:37:12;100037.94;;;3.66;71.61
22031;BME280;11179;52.106;21.024;2022-09-30T04:39:38;100044.59;;;3.70;71.69
22031;BME280;11179;52.106;21.024;2022-09-30T04:42:04;100052.66;;;3.77;71.86
22031;BME280;11179;52.106;21.024;2022-09-30T04:44:30;100036.44;;;3.70;71.75
22031;BME280;11179;52.106;21.024;2022-09-30T04:46:55;100061.97;;;3.87;71.82
22031;BME280;11179;52.106;21.024;2022-09-30T04:49:21;100058.25;;;3.88;71.78
22031;BME280;11179;52.106;21.024;2022-09-30T04:51:46;100070.53;;;3.91;71.79
22031;BME280;11179;52.106;21.024;2022-09-30T04:54:12;100063.44;;;3.90;71.98
22031;BME280;11179;52.106;21.024;2022-09-30T04:56:38;100058.84;;;3.90;72.03
22031;BME280;11179;52.106;21.024;2022-09-30T04:59:03;100074.88;;;3.98;71.75
22031;BME280;11179;52.106;21.024;2022-09-30T05:01:29;100073.44;;;3.96;72.08
22031;BME280;11179;52.106;21.024;2022-09-30T05:03:54;100079.41;;;4.04;72.03
22031;BME280;11179;52.106;21.024;2022-09-30T05:06:19;100082.91;;;4.12;72.37
22031;BME280;11179;52.106;21.024;2022-09-30T05:08:45;100083.06;;;4.17;72.32
22031;BME280;11179;52.106;21.024;2022-09-30T05:11:14;100084.72;;;4.18;72.23
22031;BME280;11179;52.106;21.024;2022-09-30T05:13:42;100082.63;;;4.20;72.33
22031;BME280;11179;52.106;21.024;2022-09-30T05:16:08;100072.81;;;4.19;72.06
22031;BME280;11179;52.106;21.024;2022-09-30T05:18:34;100066.75;;;4.17;72.31
22031;BME280;11179;52.106;21.024;2022-09-30T05:21:01;100073.41;;;4.21;72.45
22031;BME280;11179;52.106;21.024;2022-09-30T05:23:27;100076.56;;;4.18;72.32
22031;BME280;11179;52.106;21.024;2022-09-30T05:25:55;100073.41;;;4.21;72.80
22031;BME280;11179;52.106;21.024;2022-09-30T05:28:20;100075.41;;;4.32;72.40
22031;BME280;11179;52.106;21.024;2022-09-30T05:30:46;100064.09;;;4.35;72.48
22031;BME280;11179;52.106;21.024;2022-09-30T05:33:12;100074.03;;;4.41;72.44
22031;BME280;11179;52.106;21.024;2022-09-30T05:35:39;100076.47;;;4.49;72.54
22031;BME280;11179;52.106;21.024;2022-09-30T05:38:06;100065.72;;;4.54;72.47
22031;BME280;11179;52.106;21.024;2022-09-30T05:40:31;100080.34;;;4.78;72.70
22031;BME280;11179;52.106;21.024;2022-09-30T05:42:58;100087.66;;;4.77;72.60
22031;BME280;11179;52.106;21.024;2022-09-30T05:45:24;100090.44;;;4.89;72.69
22031;BME280;11179;52.106;21.024;2022-09-30T05:47:52;100092.19;;;5.02;72.72
22031;BME280;11179;52.106;21.024;2022-09-30T05:50:17;100095.09;;;5.19;72.87
22031;BME280;11179;52.106;21.024;2022-09-30T05:52:42;100082.00;;;5.27;72.38
22031;BME280;11179;52.106;21.024;2022-09-30T05:55:08;100095.81;;;5.44;72.36
22031;BME280;11179;52.106;21.024;2022-09-30T05:57:33;100088.47;;;5.44;72.30
22031;BME280;11179;52.106;21.024;2022-09-30T05:59:59;100107.03;;;5.47;72.26
22031;BME280;11179;52.106;21.024;2022-09-30T06:02:24;100109.63;;;5.42;72.08
22031;BME280;11179;52.106;21.024;2022-09-30T06:04:49;100127.81;;;5.30;72.48
22031;BME280;11179;52.106;21.024;2022-09-30T06:07:15;100120.78;;;5.23;72.16
22031;BME280;11179;52.106;21.024;2022-09-30T06:09:41;100120.09;;;5.27;72.48
22031;BME280;11179;52.106;21.024;2022-09-30T06:12:07;100121.78;;;5.28;72.25
22031;BME280;11179;52.106;21.024;2022-09-30T06:14:32;100121.38;;;5.25;72.58
22031;BME280;11179;52.106;21.024;2022-09-30T06:16:58;100130.66;;;5.35;72.80
22031;BME280;11179;52.106;21.024;2022-09-30T06:19:26;100132.72;;;5.40;72.80
22031;BME280;11179;52.106;21.024;2022-09-30T06:21:53;100134.22;;;5.36;72.62
22031;BME280;11179;52.106;21.024;2022-09-30T06:24:18;100137.09;;;5.41;72.73
22031;BME280;11179;52.106;21.024;2022-09-30T06:26:44;100141.03;;;5.45;72.72
22031;BME280;11179;52.106;21.024;2022-09-30T06:29:09;100130.97;;;5.45;72.69
22031;BME280;11179;52.106;21.024;2022-09-30T06:31:35;100150.38;;;5.49;72.76
22031;BME280;11179;52.106;21.024;2022-09-30T06:34:00;100142.75;;;5.58;72.64
22031;BME280;11179;52.106;21.024;2022-09-30T06:36:25;100131.28;;;5.67;73.06
22031;BME280;11179;52.106;21.024;2022-09-30T06:38:53;100136.19;;;6.00;72.86
22031;BME280;11179;52.106;21.024;2022-09-30T06:41:19;100132.34;;;6.19;72.75
22031;BME280;11179;52.106;21.024;2022-09-30T06:43:45;100133.34;;;6.48;72.46
22031;BME280;11179;52.106;21.024;2022-09-30T06:46:11;100126.78;;;6.84;72.46
22031;BME280;11179;52.106;21.024;2022-09-30T06:48:37;100122.78;;;7.27;72.13
22031;BME280;11179;52.106;21.024;2022-09-30T06:51:03;100136.63;;;7.65;71.56
22031;BME280;11179;52.106;21.024;2022-09-30T06:53:28;100139.16;;;7.84;71.31
22031;BME280;11179;52.106;21.024;2022-09-30T06:55:57;100137.69;;;8.10;71.43
22031;BME280;11179;52.106;21.024;2022-09-30T06:58:22;100133.13;;;8.65;71.22
22031;BME280;11179;52.106;21.024;2022-09-30T07:01:03;100130.31;;;9.21;70.51
22031;BME280;11179;52.106;21.024;2022-09-30T07:03:32;100134.31;;;9.35;69.97
22031;BME280;11179;52.106;21.024;2022-09-30T07:05:58;100138.47;;;9.37;69.45
22031;BME280;11179;52.106;21.024;2022-09-30T07:08:25;100139.81;;;9.35;69.27
22031;BME280;11179;52.106;21.024;2022-09-30T07:10:53;100138.28;;;9.44;68.82
22031;BME280;11179;52.106;21.024;2022-09-30T07:13:18;100139.41;;;9.48;68.79
22031;BME280;11179;52.106;21.024;2022-09-30T07:15:44;100136.50;;;9.55;68.20
22031;BME280;11179;52.106;21.024;2022-09-30T07:18:09;100141.31;;;9.69;68.30
22031;BME280;11179;52.106;21.024;2022-09-30T07:20:34;100139.94;;;9.72;67.97
22031;BME280;11179;52.106;21.024;2022-09-30T07:23:00;100144.78;;;9.87;67.93
22031;BME280;11179;52.106;21.024;2022-09-30T07:25:25;100146.56;;;9.98;67.59
22031;BME280;11179;52.106;21.024;2022-09-30T07:27:51;100155.16;;;10.06;67.25
22031;BME280;11179;52.106;21.024;2022-09-30T07:30:17;100151.50;;;9.96;66.82
22031;BME280;11179;52.106;21.024;2022-09-30T07:32:43;100158.22;;;10.10;67.05
22031;BME280;11179;52.106;21.024;2022-09-30T07:35:08;100163.16;;;10.13;66.89
22031;BME280;11179;52.106;21.024;2022-09-30T07:37:33;100161.88;;;10.26;66.89
22031;BME280;11179;52.106;21.024;2022-09-30T07:40:04;100161.75;;;10.42;66.63
22031;BME280;11179;52.106;21.024;2022-09-30T07:42:29;100162.47;;;10.60;66.04
22031;BME280;11179;52.106;21.024;2022-09-30T07:44:56;100167.50;;;10.73;65.90
22031;BME280;11179;52.106;21.024;2022-09-30T07:47:21;100176.00;;;10.71;65.61
22031;BME280;11179;52.106;21.024;2022-09-30T07:49:47;100168.53;;;10.67;65.61
22031;BME280;11179;52.106;21.024;2022-09-30T07:52:13;100157.19;;;10.53;65.46
22031;BME280;11179;52.106;21.024;2022-09-30T07:54:40;100162.91;;;10.46;65.84
22031;BME280;11179;52.106;21.024;2022-09-30T07:57:05;100173.31;;;10.44;65.94
22031;BME280;11179;52.106;21.024;2022-09-30T07:59:33;100173.81;;;10.36;65.97
22031;BME280;11179;52.106;21.024;2022-09-30T08:01:59;100172.75;;;10.42;66.12
22031;BME280;11179;52.106;21.024;2022-09-30T08:04:26;100177.19;;;10.48;65.99
22031;BME280;11179;52.106;21.024;2022-09-30T08:06:57;100180.59;;;10.66;65.53
22031;BME280;11179;52.106;21.024;2022-09-30T08:09:25;100182.84;;;10.69;65.75
22031;BME280;11179;52.106;21.024;2022-09-30T08:11:50;100189.50;;;10.78;65.37
22031;BME280;11179;52.106;21.024;2022-09-30T08:14:19;100198.91;;;10.92;65.26
22031;BME280;11179;52.106;21.024;2022-09-30T08:16:45;100192.38;;;10.98;65.24
22031;BME280;11179;52.106;21.024;2022-09-30T08:19:16;100193.06;;;11.15;65.12
22031;BME280;11179;52.106;21.024;2022-09-30T08:21:42;100188.41;;;11.16;65.05
22031;BME280;11179;52.106;21.024;2022-09-30T08:24:08;100195.59;;;11.32;64.85
22031;BME280;11179;52.106;21.024;2022-09-30T08:26:34;100194.84;;;11.47;64.61
22031;BME280;11179;52.106;21.024;2022-09-30T08:28:59;100185.25;;;11.44;64.29
22031;BME280;11179;52.106;21.024;2022-09-30T08:31:24;100193.56;;;11.65;64.43
22031;BME280;11179;52.106;21.024;2022-09-30T08:33:50;100199.13;;;11.80;63.89
22031;BME280;11179;52.106;21.024;2022-09-30T08:36:24;100203.84;;;12.00;63.99
22031;BME280;11179;52.106;21.024;2022-09-30T08:38:50;100198.91;;;11.97;63.73
22031;BME280;11179;52.106;21.024;2022-09-30T08:49:36;100217.63;;;12.15;63.08
22031;BME280;11179;52.106;21.024;2022-09-30T08:52:10;100217.38;;;12.11;63.23
22031;BME280;11179;52.106;21.024;2022-09-30T08:54:39;100209.91;;;12.07;63.12
22031;BME280;11179;52.106;21.024;2022-09-30T08:57:09;100211.00;;;12.01;63.28
22031;BME280;11179;52.106;21.024;2022-09-30T08:59:39;100212.41;;;12.18;63.38
22031;BME280;11179;52.106;21.024;2022-09-30T09:02:24;100213.00;;;12.36;63.37
22031;BME280;11179;52.106;21.024;2022-09-30T09:05:01;100210.56;;;12.49;62.92
22031;BME280;11179;52.106;21.024;2022-09-30T09:10:36;100218.56;;;12.51;62.58
22031;BME280;11179;52.106;21.024;2022-09-30T09:24:17;100232.28;;;13.07;60.68
22031;BME280;11179;52.106;21.024;2022-09-30T09:26:43;100222.94;;;13.03;60.43
22031;BME280;11179;52.106;21.024;2022-09-30T09:31:57;100231.78;;;12.64;60.96
22031;BME280;11179;52.106;21.024;2022-09-30T09:34:24;100232.03;;;12.57;61.07
22031;BME280;11179;52.106;21.024;2022-09-30T09:40:42;100214.94;;;12.40;60.52
22031;BME280;11179;52.106;21.024;2022-09-30T09:43:20;100216.06;;;12.49;60.57
22031;BME280;11179;52.106;21.024;2022-09-30T09:45:58;100213.88;;;12.77;60.38
22031;BME280;11179;52.106;21.024;2022-09-30T09:48:27;100206.41;;;12.72;59.70
22031;BME280;11179;52.106;21.024;2022-09-30T09:51:02;100216.88;;;12.55;59.53
22031;BME280;11179;52.106;21.024;2022-09-30T09:53:50;100213.84;;;12.46;59.83
22031;BME280;11179;52.106;21.024;2022-09-30T09:56:19;100211.34;;;12.40;59.48
22031;BME280;11179;52.106;21.024;2022-09-30T09:59:07;100206.97;;;12.59;59.93
22031;BME280;11179;52.106;21.024;2022-09-30T10:01:35;100210.56;;;12.75;59.75
22031;BME280;11179;52.106;21.024;2022-09-30T10:06:50;100202.03;;;12.51;60.06
22031;BME280;11179;52.106;21.024;2022-09-30T10:09:45;100208.34;;;12.46;60.11
22031;BME280;11179;52.106;21.024;2022-09-30T10:14:38;100195.94;;;12.84;59.63
22031;BME280;11179;52.106;21.024;2022-09-30T10:17:27;100193.47;;;12.78;59.57
22031;BME280;11179;52.106;21.024;2022-09-30T10:19:58;100194.00;;;12.80;59.66
22031;BME280;11179;52.106;21.024;2022-09-30T10:22:30;100194.84;;;12.90;59.56
22031;BME280;11179;52.106;21.024;2022-09-30T10:25:25;100206.66;;;12.96;59.20
22031;BME280;11179;52.106;21.024;2022-09-30T10:27:57;100209.44;;;12.86;59.29
22031;BME280;11179;52.106;21.024;2022-09-30T10:32:55;100202.25;;;12.80;59.59
22031;BME280;11179;52.106;21.024;2022-09-30T10:35:20;100206.66;;;12.96;59.44
22031;BME280;11179;52.106;21.024;2022-09-30T10:37:52;100193.97;;;13.15;59.07
22031;BME280;11179;52.106;21.024;2022-09-30T10:40:21;100205.47;;;13.32;58.73
22031;BME280;11179;52.106;21.024;2022-09-30T10:42:51;100210.69;;;13.39;58.76
22031;BME280;11179;52.106;21.024;2022-09-30T10:45:30;100213.75;;;13.38;58.19
22031;BME280;11179;52.106;21.024;2022-09-30T10:47:58;100221.47;;;13.36;58.38
22031;BME280;11179;52.106;21.024;2022-09-30T10:50:27;100217.03;;;13.40;58.39
22031;BME280;11179;52.106;21.024;2022-09-30T10:53:38;100211.81;;;13.33;57.99
22031;BME280;11179;52.106;21.024;2022-09-30T10:55:44;100207.94;;;13.39;58.36
22031;BME280;11179;52.106;21.024;2022-09-30T10:58:41;100206.22;;;13.58;57.99
22031;BME280;11179;52.106;21.024;2022-09-30T11:01:27;100219.75;;;13.60;58.03
22031;BME280;11179;52.106;21.024;2022-09-30T11:06:35;100207.41;;;13.37;57.22
22031;BME280;11179;52.106;21.024;2022-09-30T11:09:13;100217.59;;;13.31;57.40
22031;BME280;11179;52.106;21.024;2022-09-30T11:11:46;100209.63;;;13.30;57.42
22031;BME280;11179;52.106;21.024;2022-09-30T11:14:36;100203.81;;;13.42;57.25
22031;BME280;11179;52.106;21.024;2022-09-30T11:22:53;100223.63;;;13.54;56.78
22031;BME280;11179;52.106;21.024;2022-09-30T11:25:31;100214.53;;;13.48;56.07
22031;BME280;11179;52.106;21.024;2022-09-30T11:28:18;100217.81;;;13.50;55.83
22031;BME280;11179;52.106;21.024;2022-09-30T11:36:40;100219.22;;;13.48;55.03
22031;BME280;11179;52.106;21.024;2022-09-30T11:42:12;100211.53;;;13.40;55.28
22031;BME280;11179;52.106;21.024;2022-09-30T11:44:42;100216.78;;;13.36;55.11
22031;BME280;11179;52.106;21.024;2022-09-30T11:47:30;100211.84;;;13.23;54.67
22031;BME280;11179;52.106;21.024;2022-09-30T11:56:01;100221.72;;;13.39;55.69
22031;BME280;11179;52.106;21.024;2022-09-30T11:58:43;100224.19;;;13.56;55.61
22031;BME280;11179;52.106;21.024;2022-09-30T12:01:46;100219.19;;;13.53;55.71
22031;BME280;11179;52.106;21.024;2022-09-30T12:04:37;100225.28;;;13.45;55.45
22031;BME280;11179;52.106;21.024;2022-09-30T12:07:16;100228.34;;;13.33;55.63
22031;BME280;11179;52.106;21.024;2022-09-30T12:09:45;100216.50;;;13.32;55.61
22031;BME280;11179;52.106;21.024;2022-09-30T12:12:14;100215.66;;;13.42;55.90
22031;BME280;11179;52.106;21.024;2022-09-30T12:14:44;100225.00;;;13.51;55.76
22031;BME280;11179;52.106;21.024;2022-09-30T12:17:42;100226.38;;;13.59;55.73
22031;BME280;11179;52.106;21.024;2022-09-30T12:22:40;100216.97;;;13.70;55.74
22031;BME280;11179;52.106;21.024;2022-09-30T12:25:20;100216.16;;;13.70;54.64
22031;BME280;11179;52.106;21.024;2022-09-30T12:27:59;100223.59;;;13.69;54.90
22031;BME280;11179;52.106;21.024;2022-09-30T12:30:50;100217.00;;;13.60;54.00
22031;BME280;11179;52.106;21.024;2022-09-30T12:33:27;100209.00;;;13.58;54.37
22031;BME280;11179;52.106;21.024;2022-09-30T12:36:24;100216.41;;;13.68;53.95
22031;BME280;11179;52.106;21.024;2022-09-30T12:39:38;100219.47;;;13.61;53.00
22031;BME280;11179;52.106;21.024;2022-09-30T12:48:50;100197.78;;;13.24;51.63
22031;BME280;11179;52.106;21.024;2022-09-30T12:50:52;100201.59;;;13.33;52.20
22031;BME280;11179;52.106;21.024;2022-09-30T12:53:32;100218.16;;;13.33;51.70
22031;BME280;11179;52.106;21.024;2022-09-30T12:56:08;100216.53;;;13.22;51.32
22031;BME280;11179;52.106;21.024;2022-09-30T12:58:39;100207.19;;;13.08;51.27
22031;BME280;11179;52.106;21.024;2022-09-30T13:01:12;100223.44;;;13.20;51.40
22031;BME280;11179;52.106;21.024;2022-09-30T13:03:50;100211.31;;;13.16;50.94
22031;BME280;11179;52.106;21.024;2022-09-30T13:06:19;100212.16;;;13.06;50.57
22031;BME280;11179;52.106;21.024;2022-09-30T13:09:06;100201.69;;;12.98;50.80
22031;BME280;11179;52.106;21.024;2022-09-30T13:12:27;100207.72;;;13.20;51.19
22031;BME280;11179;52.106;21.024;2022-09-30T13:14:36;100206.59;;;13.21;51.64
22031;BME280;11179;52.106;21.024;2022-09-30T13:19:47;100203.84;;;13.26;51.84
22031;BME280;11179;52.106;21.024;2022-09-30T13:27:32;100197.47;;;13.41;51.80
22031;BME280;11179;52.106;21.024;2022-09-30T13:29:59;100192.00;;;13.31;51.98
22031;BME280;11179;52.106;21.024;2022-09-30T13:32:36;100192.00;;;13.21;52.48
22031;BME280;11179;52.106;21.024;2022-09-30T13:43:17;100193.13;;;13.05;52.11
22031;BME280;11179;52.106;21.024;2022-09-30T13:45:47;100200.31;;;13.01;52.48
22031;BME280;11179;52.106;21.024;2022-09-30T13:48:17;100189.81;;;13.08;52.48
22031;BME280;11179;52.106;21.024;2022-09-30T13:50:53;100193.41;;;13.08;52.24
22031;BME280;11179;52.106;21.024;2022-09-30T13:55:47;100195.88;;;13.05;52.72
22031;BME280;11179;52.106;21.024;2022-09-30T14:12:29;100201.69;;;12.98;53.49
22031;BME280;11179;52.106;21.024;2022-09-30T14:23:20;100205.53;;;13.07;53.51
22031;BME280;11179;52.106;21.024;2022-09-30T14:26:02;100200.84;;;13.08;53.52
22031;BME280;11179;52.106;21.024;2022-09-30T14:28:49;100207.47;;;13.12;53.50
22031;BME280;11179;52.106;21.024;2022-09-30T14:31:18;100198.91;;;13.08;53.54
22031;BME280;11179;52.106;21.024;2022-09-30T14:33:46;100204.44;;;13.08;53.68
22031;BME280;11179;52.106;21.024;2022-09-30T14:36:28;100199.22;;;12.96;53.59
22031;BME280;11179;52.106;21.024;2022-09-30T14:38:58;100198.97;;;12.88;53.72
22031;BME280;11179;52.106;21.024;2022-09-30T14:41:25;100211.34;;;12.95;53.85
22031;BME280;11179;52.106;21.024;2022-09-30T14:43:57;100210.50;;;13.05;54.29
22031;BME280;11179;52.106;21.024;2022-09-30T14:46:36;100208.28;;;13.07;54.23
22031;BME280;11179;52.106;21.024;2022-09-30T14:49:08;100203.88;;;13.11;54.31
22031;BME280;11179;52.106;21.024;2022-09-30T14:51:42;100210.50;;;13.15;54.37
22031;BME280;11179;52.106;21.024;2022-09-30T14:54:22;100205.84;;;13.01;54.27
22031;BME280;11179;52.106;21.024;2022-09-30T14:56:49;100216.03;;;12.95;54.48
22031;BME280;11179;52.106;21.024;2022-09-30T14:59:37;100217.97;;;12.94;54.58
22031;BME280;11179;52.106;21.024;2022-09-30T15:02:15;100217.97;;;13.00;54.59
22031;BME280;11179;52.106;21.024;2022-09-30T15:04:47;100220.16;;;13.03;54.61
22031;BME280;11179;52.106;21.024;2022-09-30T15:07:13;100216.59;;;13.02;54.91
22031;BME280;11179;52.106;21.024;2022-09-30T15:09:44;100211.06;;;12.97;55.00
22031;BME280;11179;52.106;21.024;2022-09-30T15:12:12;100210.81;;;13.04;55.00
22031;BME280;11179;52.106;21.024;2022-09-30T15:15:20;100213.81;;;13.07;55.35
22031;BME280;11179;52.106;21.024;2022-09-30T15:17:46;100217.38;;;13.08;55.40
22031;BME280;11179;52.106;21.024;2022-09-30T15:20:27;100216.59;;;13.02;55.61
22031;BME280;11179;52.106;21.024;2022-09-30T15:22:54;100230.09;;;13.04;55.92
22031;BME280;11179;52.106;21.024;2022-09-30T15:25:22;100224.00;;;13.07;55.95
22031;BME280;11179;52.106;21.024;2022-09-30T15:27:48;100217.66;;;13.06;56.11
22031;BME280;11179;52.106;21.024;2022-09-30T15:32:40;100215.47;;;12.98;56.68
22031;BME280;11179;52.106;21.024;2022-09-30T15:35:11;100210.25;;;12.91;56.66
22031;BME280;11179;52.106;21.024;2022-09-30T15:37:39;100211.38;;;12.90;56.99
22031;BME280;11179;52.106;21.024;2022-09-30T15:40:15;100209.72;;;12.84;57.04
22031;BME280;11179;52.106;21.024;2022-09-30T15:43:10;100217.16;;;12.79;57.08
22031;BME280;11179;52.106;21.024;2022-09-30T15:45:41;100209.75;;;12.64;57.41
22031;BME280;11179;52.106;21.024;2022-09-30T15:50:55;100226.53;;;12.63;57.75
22031;BME280;11179;52.106;21.024;2022-09-30T15:53:28;100223.50;;;12.59;57.99
22031;BME280;11179;52.106;21.024;2022-09-30T15:55:57;100224.06;;;12.61;58.12
22031;BME280;11179;52.106;21.024;2022-09-30T16:00:52;100224.88;;;12.46;58.41
22031;BME280;11179;52.106;21.024;2022-09-30T16:03:33;100222.69;;;12.48;58.42